createdAt,value
2022-11-05T00:00:17.536Z,26.83
2022-11-05T00:03:02.795Z,25.20
2022-11-05T00:05:48.535Z,26.55
2022-11-05T00:08:33.867Z,26.85
2022-11-05T00:11:00.918Z,25.17
2022-11-05T00:13:46.796Z,24.25
2022-11-05T00:16:32.459Z,24.63
2022-11-05T00:19:09.168Z,24.65
2022-11-05T00:21:58.138Z,24.85
2022-11-05T00:24:43.748Z,24.88
2022-11-05T00:27:11.253Z,26.73
2022-11-05T00:29:38.120Z,23.30
2022-11-05T00:32:05.124Z,27.83
2022-11-05T00:34:32.336Z,26.03
2022-11-05T00:36:59.121Z,27.48
2022-11-05T00:39:25.941Z,26.02
2022-11-05T00:42:11.430Z,27.42
2022-11-05T00:44:56.662Z,23.98
2022-11-05T00:47:41.805Z,25.58
2022-11-05T00:50:10.907Z,28.10
2022-11-05T00:52:57.076Z,25.92
2022-11-05T00:55:34.875Z,26.40
2022-11-05T00:58:03.840Z,25.87
2022-11-05T01:00:33.064Z,27.88
2022-11-05T01:05:28.793Z,26.10
2022-11-05T01:07:56.069Z,26.30
2022-11-05T01:10:24.673Z,24.88
2022-11-05T01:12:51.738Z,24.55
2022-11-05T01:15:19.925Z,24.17
2022-11-05T01:17:47.109Z,26.52
2022-11-05T01:20:14.158Z,25.63
2022-11-05T01:22:41.031Z,26.23
2022-11-05T01:25:08.906Z,28.02
2022-11-05T01:27:37.380Z,24.70
2022-11-05T01:30:06.961Z,25.98
2022-11-05T01:32:35.522Z,23.50
2022-11-05T01:35:04.070Z,26.00
2022-11-05T01:37:30.967Z,26.20
2022-11-05T01:39:58.010Z,28.77
2022-11-05T01:42:26.449Z,27.77
2022-11-05T01:44:55.719Z,26.85
2022-11-05T01:50:14.086Z,25.20
2022-11-05T01:52:40.941Z,27.67
2022-11-05T01:55:10.437Z,27.70
2022-11-05T01:57:37.479Z,28.45
2022-11-05T02:00:04.866Z,26.63
2022-11-05T02:02:40.123Z,27.77
2022-11-05T02:05:11.187Z,29.70
2022-11-05T02:07:38.368Z,26.58
2022-11-05T02:10:10.203Z,27.33
2022-11-05T02:12:39.594Z,32.33
2022-11-05T02:18:10.920Z,31.10
2022-11-05T02:20:59.683Z,30.93
2022-11-05T02:24:18.414Z,29.00
2022-11-05T02:27:03.496Z,29.00
2022-11-05T02:30:03.499Z,27.80
2022-11-05T02:32:36.162Z,27.97
2022-11-05T02:35:19.080Z,29.40
2022-11-05T02:38:06.599Z,27.27
2022-11-05T02:40:49.522Z,27.73
2022-11-05T02:43:28.305Z,28.83
2022-11-05T02:46:01.184Z,26.92
2022-11-05T02:48:34.065Z,29.20
2022-11-05T02:51:18.785Z,27.17
2022-11-05T02:54:01.825Z,27.40
2022-11-05T02:56:35.603Z,26.40
2022-11-05T02:59:02.436Z,28.10
2022-11-05T03:01:29.384Z,26.73
2022-11-05T03:04:00.887Z,26.03
2022-11-05T03:06:41.255Z,27.05
2022-11-05T03:09:32.128Z,26.87
2022-11-05T03:12:10.120Z,28.13
2022-11-05T03:14:49.101Z,27.87
2022-11-05T03:17:34.043Z,26.95
2022-11-05T03:20:10.662Z,26.60
2022-11-05T03:22:47.645Z,30.50
2022-11-05T03:25:21.909Z,27.80
2022-11-05T03:27:54.457Z,27.13
2022-11-05T03:30:21.576Z,27.33
2022-11-05T03:32:54.871Z,29.13
2022-11-05T03:35:27.890Z,31.57
2022-11-05T03:38:03.405Z,30.50
2022-11-05T03:40:35.159Z,30.83
2022-11-05T03:43:06.707Z,29.07
2022-11-05T03:45:38.402Z,28.17
2022-11-05T03:48:08.277Z,29.03
2022-11-05T03:50:54.180Z,28.17
2022-11-05T03:53:30.199Z,27.03
2022-11-05T03:56:03.348Z,26.40
2022-11-05T03:58:31.861Z,29.23
2022-11-05T04:01:02.777Z,23.70
2022-11-05T04:03:36.398Z,28.67
2022-11-05T04:06:24.087Z,26.40
2022-11-05T04:09:09.740Z,27.03
2022-11-05T04:11:55.651Z,25.73
2022-11-05T04:14:22.549Z,24.43
2022-11-05T04:17:08.764Z,26.40
2022-11-05T04:19:58.174Z,27.03
2022-11-05T04:22:45.370Z,26.53
2022-11-05T04:25:13.322Z,24.03
2022-11-05T04:27:40.137Z,24.07
2022-11-05T04:30:20.040Z,26.53
2022-11-05T04:32:56.756Z,28.40
2022-11-05T04:35:23.848Z,29.50
2022-11-05T04:37:50.715Z,26.97
2022-11-05T04:40:17.553Z,29.00
2022-11-05T04:42:44.354Z,28.63
2022-11-05T04:45:11.134Z,25.83
2022-11-05T04:47:37.959Z,25.40
2022-11-05T04:50:05.560Z,24.47
2022-11-05T04:52:32.432Z,25.30
2022-11-05T04:54:59.263Z,25.23
2022-11-05T04:57:26.056Z,27.63
2022-11-05T04:59:55.145Z,26.60
2022-11-05T05:02:21.993Z,25.90
2022-11-05T05:04:48.843Z,26.60
2022-11-05T05:07:15.670Z,24.70
2022-11-05T05:09:42.493Z,25.33
2022-11-05T05:12:09.262Z,26.03
2022-11-05T05:14:36.172Z,30.67
2022-11-05T05:17:03.036Z,26.53
2022-11-05T05:19:29.904Z,27.23
2022-11-05T05:21:56.731Z,27.07
2022-11-05T05:24:25.134Z,29.20
2022-11-05T05:26:52.155Z,27.43
2022-11-05T05:29:19.379Z,27.47
2022-11-05T05:31:46.179Z,27.10
2022-11-05T05:34:14.420Z,29.97
2022-11-05T05:36:41.214Z,28.90
2022-11-05T05:39:08.892Z,29.80
2022-11-05T05:41:35.687Z,28.67
2022-11-05T05:44:04.374Z,26.03
2022-11-05T05:46:31.149Z,26.52
2022-11-05T05:48:58.297Z,27.20
2022-11-05T05:51:25.075Z,27.83
2022-11-05T05:53:53.936Z,27.98
2022-11-05T05:56:21.145Z,30.63
2022-11-05T05:58:48.256Z,28.13
2022-11-05T06:01:19.193Z,28.73
2022-11-05T06:03:47.309Z,27.45
2022-11-05T06:06:15.342Z,31.33
2022-11-05T06:08:42.606Z,30.20
2022-11-05T06:11:09.800Z,32.65
2022-11-05T06:13:37.528Z,28.80
2022-11-05T06:16:07.081Z,29.63
2022-11-05T06:18:34.809Z,29.85
2022-11-05T06:21:13.010Z,31.27
2022-11-05T06:23:41.718Z,29.00
2022-11-05T06:26:11.317Z,29.95
2022-11-05T06:28:38.346Z,25.85
2022-11-05T06:31:05.952Z,28.20
2022-11-05T06:33:32.820Z,26.75
2022-11-05T06:36:01.279Z,27.77
2022-11-05T06:38:29.466Z,28.23
2022-11-05T06:40:59.360Z,28.83
2022-11-05T06:43:27.385Z,27.00
2022-11-05T06:45:54.974Z,27.73
2022-11-05T06:48:22.012Z,29.25
2022-11-05T06:50:48.865Z,27.33
2022-11-05T06:53:15.696Z,28.50
2022-11-05T06:55:44.870Z,26.15
2022-11-05T06:58:11.716Z,29.00
2022-11-05T07:00:38.644Z,25.90
2022-11-05T07:03:11.158Z,27.10
2022-11-05T07:05:45.361Z,24.88
2022-11-05T07:08:12.329Z,25.65
2022-11-05T07:10:39.191Z,25.73
2022-11-05T07:13:08.373Z,26.05
2022-11-05T07:15:35.969Z,25.48
2022-11-05T07:18:02.940Z,23.95
2022-11-05T07:20:33.937Z,26.38
2022-11-05T07:23:02.721Z,25.35
2022-11-05T07:25:31.507Z,26.65
2022-11-05T07:27:58.607Z,25.35
2022-11-05T07:30:25.476Z,25.75
2022-11-05T07:32:52.447Z,25.00
2022-11-05T07:35:19.327Z,23.75
2022-11-05T07:37:48.005Z,28.92
2022-11-05T07:40:16.646Z,25.33
2022-11-05T07:42:45.233Z,24.98
2022-11-05T07:45:13.717Z,22.42
2022-11-05T07:47:49.646Z,22.23
2022-11-05T07:50:18.376Z,22.90
2022-11-05T07:52:45.762Z,20.73
2022-11-05T07:55:13.447Z,20.88
2022-11-05T07:57:44.968Z,21.67
2022-11-05T08:00:22.962Z,20.42
2022-11-05T08:03:06.860Z,19.95
2022-11-05T08:05:38.994Z,21.35
2022-11-05T08:08:07.716Z,20.70
2022-11-05T08:10:35.452Z,22.05
2022-11-05T08:13:02.512Z,19.02
2022-11-05T08:15:29.454Z,21.13
2022-11-05T08:18:00.994Z,22.83
2022-11-05T08:20:28.522Z,21.98
2022-11-05T08:22:56.155Z,24.70
2022-11-05T08:25:23.890Z,21.13
2022-11-05T08:27:58.768Z,21.45
2022-11-05T08:30:32.624Z,20.82
2022-11-05T08:33:02.392Z,21.75
2022-11-05T08:35:29.883Z,22.13
2022-11-05T08:38:02.876Z,22.35
2022-11-05T08:40:36.155Z,19.15
2022-11-05T08:43:04.971Z,20.83
2022-11-05T08:48:04.366Z,17.50
2022-11-05T08:50:32.130Z,17.85
2022-11-05T08:52:59.187Z,20.92
2022-11-05T08:55:26.737Z,18.00
2022-11-05T08:58:01.501Z,18.20
2022-11-05T09:00:30.929Z,17.83
2022-11-05T09:03:02.401Z,17.98
2022-11-05T09:05:30.825Z,16.77
2022-11-05T09:08:01.298Z,15.63
2022-11-05T09:10:28.766Z,17.35
2022-11-05T09:12:55.850Z,16.42
2022-11-05T09:15:23.567Z,16.60
2022-11-05T09:17:50.923Z,14.52
2022-11-05T09:20:18.097Z,18.65
2022-11-05T09:22:46.401Z,15.35
2022-11-05T09:25:13.276Z,15.25
2022-11-05T09:27:40.055Z,16.98
2022-11-05T09:30:07.441Z,15.05
2022-11-05T09:32:34.397Z,15.65
2022-11-05T09:35:01.435Z,16.67
2022-11-05T09:37:29.306Z,16.90
2022-11-05T09:39:56.075Z,16.55
2022-11-05T09:42:29.431Z,16.73
2022-11-05T09:45:04.014Z,17.60
2022-11-05T09:47:40.350Z,13.95
2022-11-05T09:50:13.419Z,15.10
2022-11-05T09:52:40.228Z,13.50
2022-11-05T09:55:43.111Z,13.48
2022-11-05T09:58:17.971Z,14.50
2022-11-05T10:00:48.849Z,12.88
2022-11-05T10:03:29.013Z,14.07
2022-11-05T10:06:07.229Z,15.05
2022-11-05T10:08:44.298Z,14.32
2022-11-05T10:11:18.536Z,14.63
2022-11-05T10:13:59.635Z,12.85
2022-11-05T10:16:36.456Z,13.70
2022-11-05T10:19:13.223Z,13.98
2022-11-05T10:24:28.150Z,13.18
2022-11-05T10:26:56.428Z,15.40
2022-11-05T10:29:30.217Z,12.02
2022-11-05T10:32:00.024Z,13.30
2022-11-05T10:34:32.734Z,13.00
2022-11-05T10:36:59.730Z,12.32
2022-11-05T10:39:27.953Z,12.90
2022-11-05T10:42:10.914Z,12.60
2022-11-05T10:45:02.230Z,11.45
2022-11-05T10:47:53.850Z,13.48
2022-11-05T10:50:25.166Z,12.23
2022-11-05T10:52:58.331Z,12.38
2022-11-05T10:55:29.834Z,11.68
2022-11-05T10:58:13.361Z,12.75
2022-11-05T11:00:40.651Z,12.35
2022-11-05T11:03:36.313Z,12.00
2022-11-05T11:06:16.792Z,12.70
2022-11-05T11:08:46.256Z,11.73
2022-11-05T11:11:26.172Z,11.40
2022-11-05T11:13:58.973Z,10.70
2022-11-05T11:16:32.119Z,10.90
2022-11-05T11:19:01.333Z,10.30
2022-11-05T11:21:30.212Z,11.13
2022-11-05T11:23:58.681Z,10.68
2022-11-05T11:26:35.555Z,12.13
2022-11-05T11:29:07.152Z,13.00
2022-11-05T11:31:38.317Z,10.98
2022-11-05T11:34:28.360Z,11.10
2022-11-05T11:37:05.509Z,12.13
2022-11-05T11:39:33.404Z,11.73
2022-11-05T11:42:05.703Z,11.40
2022-11-05T11:44:42.002Z,10.63
2022-11-05T11:47:12.319Z,10.73
2022-11-05T11:49:42.025Z,11.68
2022-11-05T11:52:15.227Z,9.93
2022-11-05T11:54:42.966Z,10.48
2022-11-05T11:57:25.192Z,9.88
2022-11-05T12:00:08.341Z,10.55
2022-11-05T12:02:42.323Z,9.68
2022-11-05T12:05:33.075Z,10.23
2022-11-05T12:08:08.641Z,10.60
2022-11-05T12:10:57.857Z,10.38
2022-11-05T12:13:24.618Z,10.98
2022-11-05T12:15:58.066Z,8.23
2022-11-05T12:18:36.851Z,9.02
2022-11-05T12:21:12.477Z,8.95
2022-11-05T12:23:57.534Z,9.38
2022-11-05T12:26:42.665Z,9.68
2022-11-05T12:29:38.322Z,9.57
2022-11-05T12:32:46.549Z,10.23
2022-11-05T12:36:12.321Z,10.10
2022-11-05T12:39:06.853Z,9.32
2022-11-05T12:41:37.144Z,9.20
2022-11-05T12:44:28.100Z,11.30
2022-11-05T12:47:03.731Z,11.70
2022-11-05T12:50:00.405Z,11.25
2022-11-05T12:52:45.342Z,11.30
2022-11-05T12:55:16.973Z,11.98
2022-11-05T12:57:48.250Z,11.18
2022-11-05T13:00:20.542Z,10.63
2022-11-05T13:03:08.824Z,10.70
2022-11-05T13:05:38.762Z,9.15
2022-11-05T13:08:10.648Z,11.20
2022-11-05T13:10:55.295Z,11.05
2022-11-05T13:13:38.642Z,11.10
2022-11-05T13:16:13.736Z,11.98
2022-11-05T13:19:06.991Z,11.73
2022-11-05T13:21:36.170Z,10.25
2022-11-05T13:24:18.898Z,10.85
2022-11-05T13:26:56.364Z,10.50
2022-11-05T13:29:32.917Z,10.57
2022-11-05T13:32:19.906Z,12.45
2022-11-05T13:34:47.777Z,9.45
2022-11-05T13:37:39.495Z,10.70
2022-11-05T13:40:09.812Z,10.65
2022-11-05T13:43:14.793Z,11.05
2022-11-05T13:45:52.261Z,8.98
2022-11-05T13:48:31.330Z,11.77
2022-11-05T13:54:01.892Z,9.70
2022-11-05T13:56:47.299Z,11.55
2022-11-05T13:59:38.890Z,10.52
2022-11-05T14:02:17.566Z,11.45
2022-11-05T14:05:01.292Z,11.23
2022-11-05T14:07:35.310Z,12.38
2022-11-05T14:10:25.175Z,12.20
2022-11-05T14:12:55.019Z,11.75
2022-11-05T14:15:25.816Z,10.90
2022-11-05T14:18:27.887Z,11.07
2022-11-05T14:21:01.149Z,10.98
2022-11-05T14:23:36.636Z,11.18
2022-11-05T14:26:14.125Z,12.45
2022-11-05T14:28:47.432Z,12.95
2022-11-05T14:31:20.098Z,13.95
2022-11-05T14:34:01.447Z,12.05
2022-11-05T14:36:44.684Z,12.55
2022-11-05T14:39:29.190Z,15.20
2022-11-05T14:42:04.694Z,12.77
2022-11-05T14:44:34.971Z,15.00
2022-11-05T14:47:08.040Z,12.90
2022-11-05T14:50:01.574Z,14.65
2022-11-05T14:52:29.068Z,15.93
2022-11-05T14:54:58.667Z,16.83
2022-11-05T14:57:40.778Z,16.05
2022-11-05T15:00:36.735Z,14.68
2022-11-05T15:03:31.414Z,12.98
2022-11-05T15:06:19.294Z,14.48
2022-11-05T15:08:48.915Z,13.95
2022-11-05T15:11:28.391Z,13.68
2022-11-05T15:13:55.189Z,15.15
2022-11-05T15:17:01.147Z,14.95
2022-11-05T15:19:32.831Z,16.27
2022-11-05T15:22:04.517Z,16.33
2022-11-05T15:24:32.159Z,16.10
2022-11-05T15:26:58.915Z,16.63
2022-11-05T15:29:29.009Z,17.08
2022-11-05T15:31:56.950Z,16.48
2022-11-05T15:34:33.217Z,16.02
2022-11-05T15:37:03.494Z,16.35
2022-11-05T15:39:40.840Z,16.45
2022-11-05T15:42:22.436Z,16.75
2022-11-05T15:44:51.955Z,16.80
2022-11-05T15:47:24.554Z,17.70
2022-11-05T15:49:55.984Z,19.17
2022-11-05T15:52:26.079Z,18.15
2022-11-05T15:55:15.028Z,18.15
2022-11-05T15:57:59.036Z,17.85
2022-11-05T16:00:28.558Z,15.68
2022-11-05T16:03:06.566Z,18.52
2022-11-05T16:05:41.798Z,18.25
2022-11-05T16:08:19.072Z,18.85
2022-11-05T16:10:49.344Z,17.98
2022-11-05T16:13:28.074Z,17.63
2022-11-05T16:15:57.081Z,17.65
2022-11-05T16:18:30.188Z,16.88
2022-11-05T16:21:02.902Z,17.88
2022-11-05T16:24:00.677Z,18.20
2022-11-05T16:27:00.688Z,17.60
2022-11-05T16:29:25.773Z,18.13
2022-11-05T16:31:55.353Z,19.05
2022-11-05T16:34:27.080Z,19.75
2022-11-05T16:36:59.197Z,18.55
2022-11-05T16:39:26.695Z,17.67
2022-11-05T16:41:53.651Z,18.75
2022-11-05T16:44:20.485Z,18.33
2022-11-05T16:46:49.464Z,20.40
2022-11-05T16:49:17.492Z,19.75
2022-11-05T16:51:44.823Z,20.17
2022-11-05T16:54:11.660Z,19.45
2022-11-05T16:56:40.082Z,21.00
2022-11-05T16:59:11.282Z,20.75
2022-11-05T17:01:41.034Z,22.65
2022-11-05T17:04:09.571Z,22.42
2022-11-05T17:06:36.410Z,19.67
2022-11-05T17:09:03.250Z,19.30
2022-11-05T17:11:30.027Z,18.00
2022-11-05T17:13:56.908Z,17.70
2022-11-05T17:16:23.890Z,16.65
2022-11-05T17:18:51.171Z,18.27
2022-11-05T17:21:17.950Z,17.02
2022-11-05T17:23:44.754Z,16.42
2022-11-05T17:26:13.837Z,18.25
2022-11-05T17:28:41.231Z,18.17
2022-11-05T17:31:11.699Z,17.25
2022-11-05T17:33:38.702Z,16.10
2022-11-05T17:36:11.204Z,18.45
2022-11-05T17:38:38.634Z,20.48
2022-11-05T17:41:17.394Z,23.90
2022-11-05T17:43:44.538Z,22.70
2022-11-05T17:46:15.176Z,21.15
2022-11-05T17:48:42.565Z,23.02
2022-11-05T17:51:11.306Z,30.58
2022-11-05T17:53:38.371Z,31.50
2022-11-05T17:56:32.514Z,31.00
2022-11-05T17:59:03.145Z,32.80
2022-11-05T18:01:32.829Z,32.25
2022-11-05T18:04:05.408Z,35.38
2022-11-05T18:06:39.627Z,45.45
2022-11-05T18:09:08.261Z,41.17
2022-11-05T18:11:36.325Z,39.13
2022-11-05T18:14:04.022Z,43.40
2022-11-05T18:16:30.973Z,41.47
2022-11-05T18:18:57.854Z,38.50
2022-11-05T18:21:24.671Z,39.13
2022-11-05T18:23:53.643Z,40.15
2022-11-05T18:26:20.640Z,39.75
2022-11-05T18:28:47.458Z,36.80
2022-11-05T18:31:20.743Z,43.15
2022-11-05T18:33:51.441Z,43.22
2022-11-05T18:36:19.449Z,39.88
2022-11-05T18:38:46.875Z,41.63
2022-11-05T18:41:14.204Z,42.95
2022-11-05T18:43:41.251Z,43.78
2022-11-05T18:46:08.919Z,44.15
2022-11-05T18:48:36.527Z,51.00
2022-11-05T18:51:14.093Z,42.80
2022-11-05T18:53:41.864Z,43.95
2022-11-05T18:56:14.838Z,46.45
2022-11-05T18:58:42.804Z,47.75
2022-11-05T19:01:18.722Z,46.08
2022-11-05T19:03:46.660Z,51.55
2022-11-05T19:06:15.077Z,53.15
2022-11-05T19:08:42.072Z,47.28
2022-11-05T19:11:11.913Z,45.78
2022-11-05T19:13:39.348Z,43.15
2022-11-05T19:16:09.012Z,40.70
2022-11-05T19:18:36.244Z,39.83
2022-11-05T19:21:11.653Z,37.65
2022-11-05T19:23:39.533Z,36.88
2022-11-05T19:26:12.715Z,36.47
2022-11-05T19:28:40.492Z,25.92
2022-11-05T19:31:08.539Z,25.73
2022-11-05T19:33:35.751Z,23.98
2022-11-05T19:36:06.542Z,20.58
2022-11-05T19:38:33.684Z,19.88
2022-11-05T19:41:08.225Z,21.30
2022-11-05T19:43:36.221Z,23.30
2022-11-05T19:46:11.158Z,23.67
2022-11-05T19:48:38.380Z,24.02
2022-11-05T19:51:09.764Z,26.90
2022-11-05T19:53:41.032Z,23.88
2022-11-05T19:56:10.795Z,26.88
2022-11-05T19:58:37.574Z,28.88
2022-11-05T20:01:05.073Z,33.42
2022-11-05T20:03:32.056Z,31.88
2022-11-05T20:06:04.315Z,32.58
2022-11-05T20:08:31.125Z,64.53
2022-11-05T20:10:58.068Z,36.50
2022-11-05T20:13:25.221Z,34.55
2022-11-05T20:15:52.151Z,32.90
2022-11-05T20:18:19.354Z,33.60
2022-11-05T20:20:46.846Z,32.38
2022-11-05T20:23:14.419Z,37.75
2022-11-05T20:25:42.548Z,38.33
2022-11-05T20:28:10.080Z,34.13
2022-11-05T20:30:39.962Z,41.22
2022-11-05T20:33:09.312Z,37.97
2022-11-05T20:35:39.595Z,36.15
2022-11-05T20:38:06.517Z,33.80
2022-11-05T20:40:33.377Z,31.40
2022-11-05T20:43:00.173Z,35.17
2022-11-05T20:45:27.021Z,40.30
2022-11-05T20:47:53.873Z,44.38
2022-11-05T20:50:20.732Z,51.13
2022-11-05T20:52:47.581Z,42.15
2022-11-05T20:55:15.740Z,39.55
2022-11-05T20:57:42.687Z,43.78
2022-11-05T21:00:10.021Z,44.08
2022-11-05T21:02:38.680Z,55.38
2022-11-05T21:05:08.109Z,58.75
2022-11-05T21:10:02.351Z,53.60
2022-11-05T21:12:29.256Z,48.58
2022-11-05T21:14:56.193Z,48.38
2022-11-05T21:17:23.028Z,53.10
2022-11-05T21:19:49.979Z,52.33
2022-11-05T21:22:17.200Z,51.22
2022-11-05T21:24:44.322Z,48.60
2022-11-05T21:27:11.282Z,46.67
2022-11-05T21:29:38.060Z,53.40
2022-11-05T21:32:04.918Z,50.92
2022-11-05T21:34:31.895Z,48.72
2022-11-05T21:36:59.027Z,43.78
2022-11-05T21:39:26.162Z,42.25
2022-11-05T21:41:52.961Z,41.70
2022-11-05T21:44:19.844Z,40.83
2022-11-05T21:46:46.748Z,32.67
2022-11-05T21:49:14.693Z,30.80
2022-11-05T21:52:00.053Z,34.55
2022-11-05T21:54:45.683Z,34.22
2022-11-05T21:57:35.916Z,35.33
2022-11-05T22:00:06.214Z,35.08
2022-11-05T22:02:33.227Z,35.13
2022-11-05T22:05:00.384Z,34.22
2022-11-05T22:07:31.762Z,29.67
2022-11-05T22:09:59.103Z,31.35
2022-11-05T22:12:26.567Z,29.35
2022-11-05T22:14:53.648Z,31.35
2022-11-05T22:17:21.430Z,28.73
2022-11-05T22:19:48.253Z,40.85
2022-11-05T22:22:17.537Z,44.38
2022-11-05T22:27:15.277Z,25.45
2022-11-05T22:29:43.295Z,26.15
2022-11-05T22:32:11.360Z,28.05
2022-11-05T22:34:38.243Z,28.80
2022-11-05T22:37:05.224Z,27.63
2022-11-05T22:39:32.209Z,28.80
2022-11-05T22:42:04.220Z,27.25
2022-11-05T22:44:35.213Z,34.13
2022-11-05T22:47:05.409Z,34.03
2022-11-05T22:49:32.970Z,37.63
2022-11-05T22:52:00.328Z,37.83
2022-11-05T22:54:27.199Z,40.40
2022-11-05T22:56:54.017Z,44.58
2022-11-05T22:59:20.913Z,40.33
2022-11-05T23:01:47.953Z,36.65
2022-11-05T23:04:15.696Z,39.63
2022-11-05T23:07:01.225Z,39.20
2022-11-05T23:09:52.264Z,34.33
2022-11-05T23:12:28.508Z,79.28
2022-11-05T23:14:58.517Z,38.28
2022-11-05T23:17:44.763Z,32.75
2022-11-05T23:20:37.058Z,35.58
2022-11-05T23:23:23.022Z,37.05
2022-11-05T23:25:49.835Z,32.17
2022-11-05T23:28:21.331Z,34.05
2022-11-05T23:31:06.790Z,34.28
2022-11-05T23:33:34.847Z,31.33
2022-11-05T23:36:20.461Z,30.00
2022-11-05T23:38:47.321Z,25.25
2022-11-05T23:41:32.856Z,30.48
2022-11-05T23:44:18.523Z,31.67
2022-11-05T23:47:04.230Z,34.45
2022-11-05T23:49:31.119Z,33.88
2022-11-05T23:51:57.992Z,30.00
2022-11-05T23:54:24.813Z,26.98
2022-11-05T23:56:52.649Z,23.60
2022-11-05T23:59:19.490Z,27.77
